sensor_id;sensor_type;location;lat;lon;timestamp;P1;durP1;ratioP1;P2;durP2;ratioP2
5981;SDS011;3018;48.730;9.336;2022-07-04T00:00:59;2.78;;;1.15;;
5981;SDS011;3018;48.730;9.336;2022-07-04T00:03:25;3.25;;;1.30;;
5981;SDS011;3018;48.730;9.336;2022-07-04T00:05:51;3.50;;;1.52;;
5981;SDS011;3018;48.730;9.336;2022-07-04T00:08:17;3.22;;;1.40;;
5981;SDS011;3018;48.730;9.336;2022-07-04T00:10:44;2.58;;;1.35;;
5981;SDS011;3018;48.730;9.336;2022-07-04T00:13:11;1.67;;;1.40;;
5981;SDS011;3018;48.730;9.336;2022-07-04T00:15:38;2.45;;;1.17;;
5981;SDS011;3018;48.730;9.336;2022-07-04T00:18:04;1.60;;;1.30;;
5981;SDS011;3018;48.730;9.336;2022-07-04T00:20:30;2.47;;;1.17;;
5981;SDS011;3018;48.730;9.336;2022-07-04T00:22:57;1.42;;;1.33;;
5981;SDS011;3018;48.730;9.336;2022-07-04T00:25:23;5.30;;;1.50;;
5981;SDS011;3018;48.730;9.336;2022-07-04T00:27:49;2.33;;;1.38;;
5981;SDS011;3018;48.730;9.336;2022-07-04T00:30:17;1.75;;;1.50;;
5981;SDS011;3018;48.730;9.336;2022-07-04T00:32:43;1.83;;;1.20;;
5981;SDS011;3018;48.730;9.336;2022-07-04T00:35:09;1.35;;;1.25;;
5981;SDS011;3018;48.730;9.336;2022-07-04T00:37:35;1.25;;;1.10;;
5981;SDS011;3018;48.730;9.336;2022-07-04T00:40:02;2.95;;;1.20;;
5981;SDS011;3018;48.730;9.336;2022-07-04T00:42:28;3.33;;;1.10;;
5981;SDS011;3018;48.730;9.336;2022-07-04T00:44:54;1.10;;;0.90;;
5981;SDS011;3018;48.730;9.336;2022-07-04T00:47:22;3.38;;;1.30;;
5981;SDS011;3018;48.730;9.336;2022-07-04T00:49:48;1.30;;;1.20;;
5981;SDS011;3018;48.730;9.336;2022-07-04T00:52:14;1.35;;;1.13;;
5981;SDS011;3018;48.730;9.336;2022-07-04T00:54:41;3.40;;;1.05;;
5981;SDS011;3018;48.730;9.336;2022-07-04T00:57:07;2.75;;;0.90;;
5981;SDS011;3018;48.730;9.336;2022-07-04T00:59:33;1.60;;;1.13;;
5981;SDS011;3018;48.730;9.336;2022-07-04T01:01:59;2.75;;;1.05;;
5981;SDS011;3018;48.730;9.336;2022-07-04T01:04:27;2.05;;;1.10;;
5981;SDS011;3018;48.730;9.336;2022-07-04T01:06:53;3.22;;;0.90;;
5981;SDS011;3018;48.730;9.336;2022-07-04T01:09:20;1.63;;;0.82;;
5981;SDS011;3018;48.730;9.336;2022-07-04T01:11:48;3.75;;;1.00;;
5981;SDS011;3018;48.730;9.336;2022-07-04T01:14:14;1.85;;;0.93;;
5981;SDS011;3018;48.730;9.336;2022-07-04T01:16:40;2.40;;;1.00;;
5981;SDS011;3018;48.730;9.336;2022-07-04T01:19:07;2.42;;;0.98;;
5981;SDS011;3018;48.730;9.336;2022-07-04T01:21:34;4.15;;;1.10;;
5981;SDS011;3018;48.730;9.336;2022-07-04T01:24:01;3.22;;;1.00;;
5981;SDS011;3018;48.730;9.336;2022-07-04T01:26:27;2.85;;;0.85;;
5981;SDS011;3018;48.730;9.336;2022-07-04T01:28:53;4.88;;;1.17;;
5981;SDS011;3018;48.730;9.336;2022-07-04T01:31:20;3.08;;;1.10;;
5981;SDS011;3018;48.730;9.336;2022-07-04T01:33:46;6.10;;;1.05;;
5981;SDS011;3018;48.730;9.336;2022-07-04T01:36:12;4.25;;;1.13;;
5981;SDS011;3018;48.730;9.336;2022-07-04T01:38:40;1.02;;;0.90;;
5981;SDS011;3018;48.730;9.336;2022-07-04T01:41:06;1.05;;;1.05;;
5981;SDS011;3018;48.730;9.336;2022-07-04T01:43:33;1.92;;;1.05;;
5981;SDS011;3018;48.730;9.336;2022-07-04T01:46:00;3.08;;;1.25;;
5981;SDS011;3018;48.730;9.336;2022-07-04T01:48:26;1.63;;;1.05;;
5981;SDS011;3018;48.730;9.336;2022-07-04T01:50:52;2.40;;;0.90;;
5981;SDS011;3018;48.730;9.336;2022-07-04T01:53:19;1.95;;;1.00;;
5981;SDS011;3018;48.730;9.336;2022-07-04T01:55:46;1.40;;;0.90;;
5981;SDS011;3018;48.730;9.336;2022-07-04T01:58:12;2.33;;;1.00;;
5981;SDS011;3018;48.730;9.336;2022-07-04T02:00:39;0.98;;;0.98;;
5981;SDS011;3018;48.730;9.336;2022-07-04T02:03:23;1.80;;;1.15;;
5981;SDS011;3018;48.730;9.336;2022-07-04T02:05:49;4.32;;;1.23;;
5981;SDS011;3018;48.730;9.336;2022-07-04T02:08:15;6.50;;;1.35;;
5981;SDS011;3018;48.730;9.336;2022-07-04T02:10:42;2.80;;;0.73;;
5981;SDS011;3018;48.730;9.336;2022-07-04T02:13:11;3.05;;;1.00;;
5981;SDS011;3018;48.730;9.336;2022-07-04T02:15:37;7.07;;;1.10;;
5981;SDS011;3018;48.730;9.336;2022-07-04T02:18:04;2.35;;;1.20;;
5981;SDS011;3018;48.730;9.336;2022-07-04T02:20:31;2.15;;;0.95;;
5981;SDS011;3018;48.730;9.336;2022-07-04T02:22:57;2.40;;;1.00;;
5981;SDS011;3018;48.730;9.336;2022-07-04T02:25:24;4.15;;;1.35;;
5981;SDS011;3018;48.730;9.336;2022-07-04T02:27:50;2.00;;;0.95;;
5981;SDS011;3018;48.730;9.336;2022-07-04T02:30:17;1.20;;;1.10;;
5981;SDS011;3018;48.730;9.336;2022-07-04T02:32:44;1.95;;;1.08;;
5981;SDS011;3018;48.730;9.336;2022-07-04T02:35:10;3.13;;;1.30;;
5981;SDS011;3018;48.730;9.336;2022-07-04T02:37:37;1.10;;;1.00;;
5981;SDS011;3018;48.730;9.336;2022-07-04T02:40:04;0.98;;;0.88;;
5981;SDS011;3018;48.730;9.336;2022-07-04T02:42:30;2.15;;;1.10;;
5981;SDS011;3018;48.730;9.336;2022-07-04T02:44:57;4.07;;;1.00;;
5981;SDS011;3018;48.730;9.336;2022-07-04T02:47:25;0.93;;;0.88;;
5981;SDS011;3018;48.730;9.336;2022-07-04T02:49:51;3.90;;;1.00;;
5981;SDS011;3018;48.730;9.336;2022-07-04T02:52:18;2.33;;;1.10;;
5981;SDS011;3018;48.730;9.336;2022-07-04T02:54:44;3.25;;;1.05;;
5981;SDS011;3018;48.730;9.336;2022-07-04T02:57:11;2.97;;;1.08;;
5981;SDS011;3018;48.730;9.336;2022-07-04T02:59:38;2.40;;;1.13;;
5981;SDS011;3018;48.730;9.336;2022-07-04T03:02:04;1.48;;;1.38;;
5981;SDS011;3018;48.730;9.336;2022-07-04T03:04:32;1.80;;;1.10;;
5981;SDS011;3018;48.730;9.336;2022-07-04T03:06:58;2.28;;;1.00;;
5981;SDS011;3018;48.730;9.336;2022-07-04T03:09:24;2.60;;;1.17;;
5981;SDS011;3018;48.730;9.336;2022-07-04T03:11:52;2.35;;;1.10;;
5981;SDS011;3018;48.730;9.336;2022-07-04T03:14:18;8.65;;;1.25;;
5981;SDS011;3018;48.730;9.336;2022-07-04T03:16:44;2.28;;;1.00;;
5981;SDS011;3018;48.730;9.336;2022-07-04T03:19:11;4.53;;;1.48;;
5981;SDS011;3018;48.730;9.336;2022-07-04T03:21:39;3.70;;;1.05;;
5981;SDS011;3018;48.730;9.336;2022-07-04T03:24:05;2.17;;;1.30;;
5981;SDS011;3018;48.730;9.336;2022-07-04T03:26:33;2.13;;;1.08;;
5981;SDS011;3018;48.730;9.336;2022-07-04T03:29:00;1.85;;;1.00;;
5981;SDS011;3018;48.730;9.336;2022-07-04T03:31:27;1.02;;;0.95;;
5981;SDS011;3018;48.730;9.336;2022-07-04T03:33:54;3.08;;;1.20;;
5981;SDS011;3018;48.730;9.336;2022-07-04T03:36:20;1.20;;;1.05;;
5981;SDS011;3018;48.730;9.336;2022-07-04T03:38:48;1.58;;;1.48;;
5981;SDS011;3018;48.730;9.336;2022-07-04T03:41:14;2.83;;;1.60;;
5981;SDS011;3018;48.730;9.336;2022-07-04T03:43:40;2.15;;;1.10;;
5981;SDS011;3018;48.730;9.336;2022-07-04T03:46:07;1.77;;;1.20;;
5981;SDS011;3018;48.730;9.336;2022-07-04T03:48:33;3.38;;;1.35;;
5981;SDS011;3018;48.730;9.336;2022-07-04T03:51:01;2.35;;;1.40;;
5981;SDS011;3018;48.730;9.336;2022-07-04T03:53:27;2.75;;;1.90;;
5981;SDS011;3018;48.730;9.336;2022-07-04T03:55:54;2.40;;;1.40;;
5981;SDS011;3018;48.730;9.336;2022-07-04T03:58:21;1.92;;;1.33;;
5981;SDS011;3018;48.730;9.336;2022-07-04T04:00:47;3.25;;;1.67;;
5981;SDS011;3018;48.730;9.336;2022-07-04T04:03:13;1.63;;;1.27;;
5981;SDS011;3018;48.730;9.336;2022-07-04T04:05:57;3.22;;;1.30;;
5981;SDS011;3018;48.730;9.336;2022-07-04T04:08:23;1.50;;;1.40;;
5981;SDS011;3018;48.730;9.336;2022-07-04T04:10:50;3.15;;;1.10;;
5981;SDS011;3018;48.730;9.336;2022-07-04T04:13:18;1.95;;;1.40;;
5981;SDS011;3018;48.730;9.336;2022-07-04T04:15:44;3.10;;;1.08;;
5981;SDS011;3018;48.730;9.336;2022-07-04T04:18:10;2.83;;;1.48;;
5981;SDS011;3018;48.730;9.336;2022-07-04T04:20:36;6.57;;;1.83;;
5981;SDS011;3018;48.730;9.336;2022-07-04T04:23:03;2.42;;;1.90;;
5981;SDS011;3018;48.730;9.336;2022-07-04T04:25:29;3.42;;;2.17;;
5981;SDS011;3018;48.730;9.336;2022-07-04T04:27:55;1.95;;;1.85;;
5981;SDS011;3018;48.730;9.336;2022-07-04T04:30:23;2.13;;;1.77;;
5981;SDS011;3018;48.730;9.336;2022-07-04T04:32:49;2.72;;;1.60;;
5981;SDS011;3018;48.730;9.336;2022-07-04T04:35:15;3.97;;;1.27;;
5981;SDS011;3018;48.730;9.336;2022-07-04T04:37:42;2.22;;;1.70;;
5981;SDS011;3018;48.730;9.336;2022-07-04T04:40:09;7.50;;;1.20;;
5981;SDS011;3018;48.730;9.336;2022-07-04T04:42:35;5.32;;;1.65;;
5981;SDS011;3018;48.730;9.336;2022-07-04T04:45:03;2.92;;;1.23;;
5981;SDS011;3018;48.730;9.336;2022-07-04T04:47:31;3.15;;;1.42;;
5981;SDS011;3018;48.730;9.336;2022-07-04T04:49:57;3.80;;;1.35;;
5981;SDS011;3018;48.730;9.336;2022-07-04T04:52:23;4.88;;;1.42;;
5981;SDS011;3018;48.730;9.336;2022-07-04T04:54:50;4.57;;;1.52;;
5981;SDS011;3018;48.730;9.336;2022-07-04T04:57:16;5.65;;;1.55;;
5981;SDS011;3018;48.730;9.336;2022-07-04T04:59:42;1.90;;;1.20;;
5981;SDS011;3018;48.730;9.336;2022-07-04T05:02:08;5.80;;;1.45;;
5981;SDS011;3018;48.730;9.336;2022-07-04T05:04:36;1.88;;;1.13;;
5981;SDS011;3018;48.730;9.336;2022-07-04T05:07:03;4.13;;;1.63;;
5981;SDS011;3018;48.730;9.336;2022-07-04T05:09:29;5.65;;;1.60;;
5981;SDS011;3018;48.730;9.336;2022-07-04T05:11:55;1.13;;;1.13;;
5981;SDS011;3018;48.730;9.336;2022-07-04T05:14:21;3.95;;;1.52;;
5981;SDS011;3018;48.730;9.336;2022-07-04T05:16:48;2.80;;;1.33;;
5981;SDS011;3018;48.730;9.336;2022-07-04T05:19:14;4.25;;;1.67;;
5981;SDS011;3018;48.730;9.336;2022-07-04T05:21:42;1.50;;;1.40;;
5981;SDS011;3018;48.730;9.336;2022-07-04T05:24:08;4.72;;;1.45;;
5981;SDS011;3018;48.730;9.336;2022-07-04T05:26:36;6.15;;;1.90;;
5981;SDS011;3018;48.730;9.336;2022-07-04T05:29:02;1.75;;;1.30;;
5981;SDS011;3018;48.730;9.336;2022-07-04T05:31:29;2.33;;;1.50;;
5981;SDS011;3018;48.730;9.336;2022-07-04T05:33:55;2.53;;;1.30;;
5981;SDS011;3018;48.730;9.336;2022-07-04T05:36:22;5.00;;;1.52;;
5981;SDS011;3018;48.730;9.336;2022-07-04T05:38:50;4.00;;;1.70;;
5981;SDS011;3018;48.730;9.336;2022-07-04T05:41:16;4.80;;;1.50;;
5981;SDS011;3018;48.730;9.336;2022-07-04T05:43:43;3.70;;;1.30;;
5981;SDS011;3018;48.730;9.336;2022-07-04T05:46:10;3.55;;;1.55;;
5981;SDS011;3018;48.730;9.336;2022-07-04T05:48:36;2.85;;;1.80;;
5981;SDS011;3018;48.730;9.336;2022-07-04T05:51:02;4.88;;;1.60;;
5981;SDS011;3018;48.730;9.336;2022-07-04T05:53:29;1.50;;;1.38;;
5981;SDS011;3018;48.730;9.336;2022-07-04T05:55:56;3.20;;;1.20;;
5981;SDS011;3018;48.730;9.336;2022-07-04T05:58:22;1.88;;;0.95;;
5981;SDS011;3018;48.730;9.336;2022-07-04T06:00:49;1.40;;;1.40;;
5981;SDS011;3018;48.730;9.336;2022-07-04T06:03:15;1.90;;;1.48;;
5981;SDS011;3018;48.730;9.336;2022-07-04T06:05:41;2.78;;;1.75;;
5981;SDS011;3018;48.730;9.336;2022-07-04T06:08:08;3.22;;;2.03;;
5981;SDS011;3018;48.730;9.336;2022-07-04T06:10:34;1.95;;;1.85;;
5981;SDS011;3018;48.730;9.336;2022-07-04T06:13:01;6.53;;;1.70;;
5981;SDS011;3018;48.730;9.336;2022-07-04T06:15:28;1.50;;;1.30;;
5981;SDS011;3018;48.730;9.336;2022-07-04T06:17:54;5.30;;;1.45;;
5981;SDS011;3018;48.730;9.336;2022-07-04T06:20:20;2.83;;;1.50;;
5981;SDS011;3018;48.730;9.336;2022-07-04T06:22:48;2.33;;;1.45;;
5981;SDS011;3018;48.730;9.336;2022-07-04T06:25:15;2.88;;;1.33;;
5981;SDS011;3018;48.730;9.336;2022-07-04T06:27:42;1.63;;;1.52;;
5981;SDS011;3018;48.730;9.336;2022-07-04T06:30:10;4.38;;;1.52;;
5981;SDS011;3018;48.730;9.336;2022-07-04T06:32:43;6.88;;;1.55;;
5981;SDS011;3018;48.730;9.336;2022-07-04T06:35:09;4.78;;;1.58;;
5981;SDS011;3018;48.730;9.336;2022-07-04T06:37:53;4.43;;;1.23;;
5981;SDS011;3018;48.730;9.336;2022-07-04T06:40:20;6.07;;;1.40;;
5981;SDS011;3018;48.730;9.336;2022-07-04T06:42:46;6.72;;;1.30;;
5981;SDS011;3018;48.730;9.336;2022-07-04T06:45:14;3.55;;;2.03;;
5981;SDS011;3018;48.730;9.336;2022-07-04T06:47:40;1.63;;;1.48;;
5981;SDS011;3018;48.730;9.336;2022-07-04T06:50:07;1.80;;;1.55;;
5981;SDS011;3018;48.730;9.336;2022-07-04T06:52:34;5.32;;;1.52;;
5981;SDS011;3018;48.730;9.336;2022-07-04T06:55:00;2.53;;;1.25;;
5981;SDS011;3018;48.730;9.336;2022-07-04T06:57:26;1.95;;;1.20;;
5981;SDS011;3018;48.730;9.336;2022-07-04T06:59:53;2.13;;;1.38;;
5981;SDS011;3018;48.730;9.336;2022-07-04T07:02:20;3.08;;;1.20;;
5981;SDS011;3018;48.730;9.336;2022-07-04T07:04:46;2.13;;;1.35;;
5981;SDS011;3018;48.730;9.336;2022-07-04T07:07:13;1.92;;;1.27;;
5981;SDS011;3018;48.730;9.336;2022-07-04T07:09:39;2.95;;;1.35;;
5981;SDS011;3018;48.730;9.336;2022-07-04T07:12:05;1.73;;;1.38;;
5981;SDS011;3018;48.730;9.336;2022-07-04T07:14:32;2.00;;;1.77;;
5981;SDS011;3018;48.730;9.336;2022-07-04T07:16:58;2.20;;;1.50;;
5981;SDS011;3018;48.730;9.336;2022-07-04T07:19:26;4.72;;;1.60;;
5981;SDS011;3018;48.730;9.336;2022-07-04T07:21:52;4.13;;;1.48;;
5981;SDS011;3018;48.730;9.336;2022-07-04T07:24:18;1.60;;;1.30;;
5981;SDS011;3018;48.730;9.336;2022-07-04T07:26:44;2.17;;;1.15;;
5981;SDS011;3018;48.730;9.336;2022-07-04T07:29:11;2.95;;;1.58;;
5981;SDS011;3018;48.730;9.336;2022-07-04T07:31:37;1.67;;;1.10;;
5981;SDS011;3018;48.730;9.336;2022-07-04T07:34:03;1.38;;;1.27;;
5981;SDS011;3018;48.730;9.336;2022-07-04T07:36:31;6.10;;;1.40;;
5981;SDS011;3018;48.730;9.336;2022-07-04T07:38:57;2.75;;;1.20;;
5981;SDS011;3018;48.730;9.336;2022-07-04T07:41:23;1.85;;;1.25;;
5981;SDS011;3018;48.730;9.336;2022-07-04T07:43:50;2.92;;;1.40;;
5981;SDS011;3018;48.730;9.336;2022-07-04T07:46:16;1.30;;;1.20;;
5981;SDS011;3018;48.730;9.336;2022-07-04T07:48:42;1.80;;;1.30;;
5981;SDS011;3018;48.730;9.336;2022-07-04T07:51:09;2.42;;;1.73;;
5981;SDS011;3018;48.730;9.336;2022-07-04T07:53:37;2.22;;;1.42;;
5981;SDS011;3018;48.730;9.336;2022-07-04T07:56:03;1.42;;;1.33;;
5981;SDS011;3018;48.730;9.336;2022-07-04T07:58:29;5.63;;;1.13;;
5981;SDS011;3018;48.730;9.336;2022-07-04T08:00:56;4.25;;;1.35;;
5981;SDS011;3018;48.730;9.336;2022-07-04T08:03:22;5.40;;;1.23;;
5981;SDS011;3018;48.730;9.336;2022-07-04T08:06:06;1.70;;;1.35;;
5981;SDS011;3018;48.730;9.336;2022-07-04T08:08:33;1.65;;;1.50;;
5981;SDS011;3018;48.730;9.336;2022-07-04T08:11:01;4.82;;;1.65;;
5981;SDS011;3018;48.730;9.336;2022-07-04T08:13:27;3.47;;;1.55;;
5981;SDS011;3018;48.730;9.336;2022-07-04T08:15:53;2.83;;;1.50;;
5981;SDS011;3018;48.730;9.336;2022-07-04T08:18:19;2.10;;;1.58;;
5981;SDS011;3018;48.730;9.336;2022-07-04T08:20:47;4.32;;;1.27;;
5981;SDS011;3018;48.730;9.336;2022-07-04T08:23:14;1.10;;;1.10;;
5981;SDS011;3018;48.730;9.336;2022-07-04T08:25:40;4.32;;;1.42;;
5981;SDS011;3018;48.730;9.336;2022-07-04T08:28:08;3.72;;;1.50;;
5981;SDS011;3018;48.730;9.336;2022-07-04T08:30:34;3.92;;;1.30;;
5981;SDS011;3018;48.730;9.336;2022-07-04T08:33:00;1.65;;;1.20;;
5981;SDS011;3018;48.730;9.336;2022-07-04T08:35:27;2.63;;;1.70;;
5981;SDS011;3018;48.730;9.336;2022-07-04T08:37:53;4.25;;;1.52;;
5981;SDS011;3018;48.730;9.336;2022-07-04T08:40:20;2.78;;;1.10;;
5981;SDS011;3018;48.730;9.336;2022-07-04T08:42:47;3.15;;;1.60;;
5981;SDS011;3018;48.730;9.336;2022-07-04T08:45:16;12.95;;;2.22;;
5981;SDS011;3018;48.730;9.336;2022-07-04T08:47:43;13.30;;;1.63;;
5981;SDS011;3018;48.730;9.336;2022-07-04T08:50:10;3.25;;;1.52;;
5981;SDS011;3018;48.730;9.336;2022-07-04T08:52:37;4.13;;;1.70;;
5981;SDS011;3018;48.730;9.336;2022-07-04T08:55:04;7.63;;;2.58;;
5981;SDS011;3018;48.730;9.336;2022-07-04T08:57:49;5.07;;;1.63;;
5981;SDS011;3018;48.730;9.336;2022-07-04T09:00:34;2.65;;;1.35;;
5981;SDS011;3018;48.730;9.336;2022-07-04T09:03:01;4.72;;;1.40;;
5981;SDS011;3018;48.730;9.336;2022-07-04T09:05:28;5.97;;;1.67;;
5981;SDS011;3018;48.730;9.336;2022-07-04T09:07:54;2.25;;;1.50;;
5981;SDS011;3018;48.730;9.336;2022-07-04T09:10:21;5.00;;;1.10;;
5981;SDS011;3018;48.730;9.336;2022-07-04T09:12:47;4.20;;;1.45;;
5981;SDS011;3018;48.730;9.336;2022-07-04T09:15:14;7.57;;;1.65;;
5981;SDS011;3018;48.730;9.336;2022-07-04T09:17:42;3.75;;;1.60;;
5981;SDS011;3018;48.730;9.336;2022-07-04T09:20:12;4.28;;;1.25;;
5981;SDS011;3018;48.730;9.336;2022-07-04T09:22:39;6.38;;;1.75;;
5981;SDS011;3018;48.730;9.336;2022-07-04T09:25:05;3.40;;;1.58;;
5981;SDS011;3018;48.730;9.336;2022-07-04T09:27:33;1.60;;;1.40;;
5981;SDS011;3018;48.730;9.336;2022-07-04T09:29:59;2.40;;;1.15;;
5981;SDS011;3018;48.730;9.336;2022-07-04T09:32:35;3.17;;;1.45;;
5981;SDS011;3018;48.730;9.336;2022-07-04T09:35:04;3.17;;;1.73;;
5981;SDS011;3018;48.730;9.336;2022-07-04T09:37:34;3.05;;;1.40;;
5981;SDS011;3018;48.730;9.336;2022-07-04T09:40:02;2.90;;;1.73;;
5981;SDS011;3018;48.730;9.336;2022-07-04T09:42:34;3.03;;;1.45;;
5981;SDS011;3018;48.730;9.336;2022-07-04T09:45:03;4.18;;;1.27;;
5981;SDS011;3018;48.730;9.336;2022-07-04T09:47:30;3.30;;;1.55;;
5981;SDS011;3018;48.730;9.336;2022-07-04T09:49:59;4.90;;;1.58;;
5981;SDS011;3018;48.730;9.336;2022-07-04T09:52:27;8.65;;;1.77;;
5981;SDS011;3018;48.730;9.336;2022-07-04T09:54:56;6.30;;;1.90;;
5981;SDS011;3018;48.730;9.336;2022-07-04T09:57:23;13.02;;;2.40;;
5981;SDS011;3018;48.730;9.336;2022-07-04T09:59:49;8.13;;;1.90;;
5981;SDS011;3018;48.730;9.336;2022-07-04T10:02:15;5.95;;;1.40;;
5981;SDS011;3018;48.730;9.336;2022-07-04T10:04:42;4.30;;;1.90;;
5981;SDS011;3018;48.730;9.336;2022-07-04T10:07:09;4.22;;;1.60;;
5981;SDS011;3018;48.730;9.336;2022-07-04T10:09:36;9.98;;;1.60;;
5981;SDS011;3018;48.730;9.336;2022-07-04T10:12:03;3.05;;;1.55;;
5981;SDS011;3018;48.730;9.336;2022-07-04T10:14:29;2.60;;;1.35;;
5981;SDS011;3018;48.730;9.336;2022-07-04T10:16:56;4.18;;;1.40;;
5981;SDS011;3018;48.730;9.336;2022-07-04T10:19:22;2.42;;;1.20;;
5981;SDS011;3018;48.730;9.336;2022-07-04T10:21:49;1.35;;;1.00;;
5981;SDS011;3018;48.730;9.336;2022-07-04T10:24:16;2.53;;;1.33;;
5981;SDS011;3018;48.730;9.336;2022-07-04T10:26:44;3.15;;;1.10;;
5981;SDS011;3018;48.730;9.336;2022-07-04T10:29:10;3.05;;;1.25;;
5981;SDS011;3018;48.730;9.336;2022-07-04T10:31:37;3.88;;;1.30;;
5981;SDS011;3018;48.730;9.336;2022-07-04T10:34:03;1.73;;;1.25;;
5981;SDS011;3018;48.730;9.336;2022-07-04T10:36:30;2.15;;;1.08;;
5981;SDS011;3018;48.730;9.336;2022-07-04T10:38:57;2.60;;;1.15;;
5981;SDS011;3018;48.730;9.336;2022-07-04T10:41:25;3.55;;;1.15;;
5981;SDS011;3018;48.730;9.336;2022-07-04T10:43:57;3.03;;;1.20;;
5981;SDS011;3018;48.730;9.336;2022-07-04T10:46:26;1.92;;;1.02;;
5981;SDS011;3018;48.730;9.336;2022-07-04T10:48:53;3.63;;;1.27;;
5981;SDS011;3018;48.730;9.336;2022-07-04T10:51:31;1.55;;;1.15;;
5981;SDS011;3018;48.730;9.336;2022-07-04T10:53:58;4.95;;;1.35;;
5981;SDS011;3018;48.730;9.336;2022-07-04T10:56:31;4.18;;;1.20;;
5981;SDS011;3018;48.730;9.336;2022-07-04T10:59:01;4.35;;;0.90;;
5981;SDS011;3018;48.730;9.336;2022-07-04T11:01:29;3.33;;;1.17;;
5981;SDS011;3018;48.730;9.336;2022-07-04T11:03:55;3.95;;;1.08;;
5981;SDS011;3018;48.730;9.336;2022-07-04T11:09:13;1.95;;;1.10;;
5981;SDS011;3018;48.730;9.336;2022-07-04T11:11:54;3.42;;;1.00;;
5981;SDS011;3018;48.730;9.336;2022-07-04T11:14:39;3.05;;;1.00;;
5981;SDS011;3018;48.730;9.336;2022-07-04T11:17:06;9.27;;;1.50;;
5981;SDS011;3018;48.730;9.336;2022-07-04T11:19:33;1.80;;;0.95;;
5981;SDS011;3018;48.730;9.336;2022-07-04T11:22:00;5.40;;;1.27;;
5981;SDS011;3018;48.730;9.336;2022-07-04T11:24:27;2.80;;;1.00;;
5981;SDS011;3018;48.730;9.336;2022-07-04T11:26:53;3.63;;;1.30;;
5981;SDS011;3018;48.730;9.336;2022-07-04T11:29:20;2.17;;;0.90;;
5981;SDS011;3018;48.730;9.336;2022-07-04T11:31:48;3.08;;;1.42;;
5981;SDS011;3018;48.730;9.336;2022-07-04T11:34:15;3.70;;;1.20;;
5981;SDS011;3018;48.730;9.336;2022-07-04T11:36:41;3.42;;;1.30;;
5981;SDS011;3018;48.730;9.336;2022-07-04T11:39:09;2.55;;;1.05;;
5981;SDS011;3018;48.730;9.336;2022-07-04T11:41:37;2.63;;;1.17;;
5981;SDS011;3018;48.730;9.336;2022-07-04T11:44:21;3.63;;;1.10;;
5981;SDS011;3018;48.730;9.336;2022-07-04T11:47:07;18.55;;;1.85;;
5981;SDS011;3018;48.730;9.336;2022-07-04T11:49:34;2.20;;;1.10;;
5981;SDS011;3018;48.730;9.336;2022-07-04T11:52:00;6.40;;;1.25;;
5981;SDS011;3018;48.730;9.336;2022-07-04T11:54:27;1.95;;;1.42;;
5981;SDS011;3018;48.730;9.336;2022-07-04T11:57:07;4.70;;;1.17;;
5981;SDS011;3018;48.730;9.336;2022-07-04T11:59:33;4.15;;;1.38;;
5981;SDS011;3018;48.730;9.336;2022-07-04T12:02:10;4.70;;;1.20;;
5981;SDS011;3018;48.730;9.336;2022-07-04T12:04:37;5.47;;;1.27;;
5981;SDS011;3018;48.730;9.336;2022-07-04T12:07:08;6.07;;;1.42;;
5981;SDS011;3018;48.730;9.336;2022-07-04T12:09:34;4.05;;;1.23;;
5981;SDS011;3018;48.730;9.336;2022-07-04T12:12:01;1.35;;;1.25;;
5981;SDS011;3018;48.730;9.336;2022-07-04T12:14:27;2.80;;;1.20;;
5981;SDS011;3018;48.730;9.336;2022-07-04T12:17:14;2.25;;;1.20;;
5981;SDS011;3018;48.730;9.336;2022-07-04T12:19:50;3.00;;;1.20;;
5981;SDS011;3018;48.730;9.336;2022-07-04T12:22:24;6.25;;;4.50;;
5981;SDS011;3018;48.730;9.336;2022-07-04T12:24:50;8.45;;;7.65;;
5981;SDS011;3018;48.730;9.336;2022-07-04T12:27:17;7.13;;;6.53;;
5981;SDS011;3018;48.730;9.336;2022-07-04T12:29:47;3.83;;;1.77;;
5981;SDS011;3018;48.730;9.336;2022-07-04T12:32:15;27.25;;;3.97;;
5981;SDS011;3018;48.730;9.336;2022-07-04T12:34:42;5.07;;;2.65;;
5981;SDS011;3018;48.730;9.336;2022-07-04T12:37:09;5.75;;;2.47;;
5981;SDS011;3018;48.730;9.336;2022-07-04T12:39:36;3.38;;;1.60;;
5981;SDS011;3018;48.730;9.336;2022-07-04T12:42:03;3.45;;;1.42;;
5981;SDS011;3018;48.730;9.336;2022-07-04T12:44:29;2.45;;;1.40;;
5981;SDS011;3018;48.730;9.336;2022-07-04T12:46:56;3.88;;;1.27;;
5981;SDS011;3018;48.730;9.336;2022-07-04T12:49:23;33.67;;;3.75;;
5981;SDS011;3018;48.730;9.336;2022-07-04T12:51:50;5.78;;;1.33;;
5981;SDS011;3018;48.730;9.336;2022-07-04T12:54:17;4.55;;;1.40;;
5981;SDS011;3018;48.730;9.336;2022-07-04T12:56:44;2.15;;;1.45;;
5981;SDS011;3018;48.730;9.336;2022-07-04T12:59:11;6.05;;;1.25;;
5981;SDS011;3018;48.730;9.336;2022-07-04T13:01:38;1.58;;;1.10;;
5981;SDS011;3018;48.730;9.336;2022-07-04T13:04:05;3.33;;;1.40;;
5981;SDS011;3018;48.730;9.336;2022-07-04T13:06:32;3.97;;;1.38;;
5981;SDS011;3018;48.730;9.336;2022-07-04T13:08:59;2.30;;;1.27;;
5981;SDS011;3018;48.730;9.336;2022-07-04T13:11:25;5.80;;;1.30;;
5981;SDS011;3018;48.730;9.336;2022-07-04T13:14:09;3.45;;;1.15;;
5981;SDS011;3018;48.730;9.336;2022-07-04T13:16:35;0.93;;;0.93;;
5981;SDS011;3018;48.730;9.336;2022-07-04T13:19:02;8.48;;;1.63;;
5981;SDS011;3018;48.730;9.336;2022-07-04T13:21:28;10.20;;;1.38;;
5981;SDS011;3018;48.730;9.336;2022-07-04T13:23:56;5.47;;;1.30;;
5981;SDS011;3018;48.730;9.336;2022-07-04T13:26:22;2.92;;;1.05;;
5981;SDS011;3018;48.730;9.336;2022-07-04T13:28:49;3.38;;;1.20;;
5981;SDS011;3018;48.730;9.336;2022-07-04T13:31:15;3.55;;;1.20;;
5981;SDS011;3018;48.730;9.336;2022-07-04T13:33:41;2.75;;;1.30;;
5981;SDS011;3018;48.730;9.336;2022-07-04T13:36:08;5.03;;;1.05;;
5981;SDS011;3018;48.730;9.336;2022-07-04T13:38:34;3.03;;;1.10;;
5981;SDS011;3018;48.730;9.336;2022-07-04T13:41:02;5.85;;;1.20;;
5981;SDS011;3018;48.730;9.336;2022-07-04T13:43:28;4.93;;;1.00;;
5981;SDS011;3018;48.730;9.336;2022-07-04T13:45:54;2.38;;;1.25;;
5981;SDS011;3018;48.730;9.336;2022-07-04T13:48:21;1.25;;;1.10;;
5981;SDS011;3018;48.730;9.336;2022-07-04T13:50:48;4.45;;;1.00;;
5981;SDS011;3018;48.730;9.336;2022-07-04T13:53:14;1.60;;;0.98;;
5981;SDS011;3018;48.730;9.336;2022-07-04T13:55:40;1.77;;;0.90;;
5981;SDS011;3018;48.730;9.336;2022-07-04T13:58:08;3.03;;;0.90;;
5981;SDS011;3018;48.730;9.336;2022-07-04T14:00:35;2.00;;;0.93;;
5981;SDS011;3018;48.730;9.336;2022-07-04T14:03:01;1.77;;;1.00;;
5981;SDS011;3018;48.730;9.336;2022-07-04T14:05:28;2.35;;;0.93;;
5981;SDS011;3018;48.730;9.336;2022-07-04T14:07:54;3.08;;;0.77;;
5981;SDS011;3018;48.730;9.336;2022-07-04T14:10:21;0.90;;;0.90;;
5981;SDS011;3018;48.730;9.336;2022-07-04T14:12:47;3.17;;;0.90;;
5981;SDS011;3018;48.730;9.336;2022-07-04T14:15:15;1.73;;;0.85;;
5981;SDS011;3018;48.730;9.336;2022-07-04T14:17:41;8.00;;;1.20;;
5981;SDS011;3018;48.730;9.336;2022-07-04T14:20:08;2.35;;;1.02;;
5981;SDS011;3018;48.730;9.336;2022-07-04T14:22:35;6.32;;;1.10;;
5981;SDS011;3018;48.730;9.336;2022-07-04T14:25:01;3.50;;;0.90;;
5981;SDS011;3018;48.730;9.336;2022-07-04T14:27:28;1.73;;;0.73;;
5981;SDS011;3018;48.730;9.336;2022-07-04T14:29:54;1.52;;;0.82;;
5981;SDS011;3018;48.730;9.336;2022-07-04T14:32:21;5.90;;;0.90;;
5981;SDS011;3018;48.730;9.336;2022-07-04T14:34:48;3.67;;;0.85;;
5981;SDS011;3018;48.730;9.336;2022-07-04T14:37:14;1.83;;;0.88;;
5981;SDS011;3018;48.730;9.336;2022-07-04T14:39:41;4.50;;;0.90;;
5981;SDS011;3018;48.730;9.336;2022-07-04T14:42:07;2.05;;;1.00;;
5981;SDS011;3018;48.730;9.336;2022-07-04T14:44:34;0.98;;;0.80;;
5981;SDS011;3018;48.730;9.336;2022-07-04T14:47:03;2.45;;;1.10;;
5981;SDS011;3018;48.730;9.336;2022-07-04T14:49:30;4.65;;;1.00;;
5981;SDS011;3018;48.730;9.336;2022-07-04T14:51:57;0.82;;;0.70;;
5981;SDS011;3018;48.730;9.336;2022-07-04T14:54:23;2.85;;;0.85;;
5981;SDS011;3018;48.730;9.336;2022-07-04T14:56:49;2.28;;;0.98;;
5981;SDS011;3018;48.730;9.336;2022-07-04T14:59:16;1.95;;;0.98;;
5981;SDS011;3018;48.730;9.336;2022-07-04T15:01:42;2.08;;;1.00;;
5981;SDS011;3018;48.730;9.336;2022-07-04T15:04:08;4.47;;;1.10;;
5981;SDS011;3018;48.730;9.336;2022-07-04T15:06:36;3.50;;;1.00;;
5981;SDS011;3018;48.730;9.336;2022-07-04T15:09:02;1.38;;;0.73;;
5981;SDS011;3018;48.730;9.336;2022-07-04T15:11:30;2.17;;;0.82;;
5981;SDS011;3018;48.730;9.336;2022-07-04T15:13:56;0.90;;;0.90;;
5981;SDS011;3018;48.730;9.336;2022-07-04T15:16:23;1.13;;;0.80;;
5981;SDS011;3018;48.730;9.336;2022-07-04T15:18:49;2.60;;;1.20;;